sensor_id;sensor_type;location;lat;lon;timestamp;temperature;humidity
27667;DHT22;15074;50.940;5.282;2022-07-05T00:00:45;16.20;99.90
27667;DHT22;15074;50.940;5.282;2022-07-05T00:03:11;16.10;99.90
27667;DHT22;15074;50.940;5.282;2022-07-05T00:05:37;16.10;99.90
27667;DHT22;15074;50.940;5.282;2022-07-05T00:08:04;16.10;99.90
27667;DHT22;15074;50.940;5.282;2022-07-05T00:10:31;16.00;99.90
27667;DHT22;15074;50.940;5.282;2022-07-05T00:12:57;16.00;99.90
27667;DHT22;15074;50.940;5.282;2022-07-05T00:15:22;15.90;99.90
27667;DHT22;15074;50.940;5.282;2022-07-05T00:17:49;15.70;99.90
27667;DHT22;15074;50.940;5.282;2022-07-05T00:20:14;15.60;99.90
27667;DHT22;15074;50.940;5.282;2022-07-05T00:22:40;15.40;99.90
27667;DHT22;15074;50.940;5.282;2022-07-05T00:25:06;15.30;99.90
27667;DHT22;15074;50.940;5.282;2022-07-05T00:27:32;15.10;99.90
27667;DHT22;15074;50.940;5.282;2022-07-05T00:29:58;15.00;99.90
27667;DHT22;15074;50.940;5.282;2022-07-05T00:32:23;15.10;99.90
27667;DHT22;15074;50.940;5.282;2022-07-05T00:34:49;15.00;99.90
27667;DHT22;15074;50.940;5.282;2022-07-05T00:37:15;15.00;99.90
27667;DHT22;15074;50.940;5.282;2022-07-05T00:39:40;15.00;99.90
27667;DHT22;15074;50.940;5.282;2022-07-05T00:42:06;15.00;99.90
27667;DHT22;15074;50.940;5.282;2022-07-05T00:44:34;15.00;99.90
27667;DHT22;15074;50.940;5.282;2022-07-05T00:47:01;14.90;99.90
27667;DHT22;15074;50.940;5.282;2022-07-05T00:49:28;14.80;99.90
27667;DHT22;15074;50.940;5.282;2022-07-05T00:51:54;14.70;99.90
27667;DHT22;15074;50.940;5.282;2022-07-05T00:54:20;14.70;99.90
27667;DHT22;15074;50.940;5.282;2022-07-05T00:56:46;14.70;99.90
27667;DHT22;15074;50.940;5.282;2022-07-05T00:59:12;14.60;99.90
27667;DHT22;15074;50.940;5.282;2022-07-05T01:01:38;14.50;99.90
27667;DHT22;15074;50.940;5.282;2022-07-05T01:04:04;14.40;99.90
27667;DHT22;15074;50.940;5.282;2022-07-05T01:06:29;14.40;99.90
27667;DHT22;15074;50.940;5.282;2022-07-05T01:08:55;14.20;99.90
27667;DHT22;15074;50.940;5.282;2022-07-05T01:11:20;14.20;99.90
27667;DHT22;15074;50.940;5.282;2022-07-05T01:13:46;14.10;99.90
27667;DHT22;15074;50.940;5.282;2022-07-05T01:16:13;14.20;99.90
27667;DHT22;15074;50.940;5.282;2022-07-05T01:18:38;14.30;99.90
27667;DHT22;15074;50.940;5.282;2022-07-05T01:21:04;14.40;99.90
27667;DHT22;15074;50.940;5.282;2022-07-05T01:23:31;14.30;99.90
27667;DHT22;15074;50.940;5.282;2022-07-05T01:26:00;14.20;99.90
27667;DHT22;15074;50.940;5.282;2022-07-05T01:28:26;14.10;99.90
27667;DHT22;15074;50.940;5.282;2022-07-05T01:30:52;14.10;99.90
27667;DHT22;15074;50.940;5.282;2022-07-05T01:33:18;14.10;99.90
27667;DHT22;15074;50.940;5.282;2022-07-05T01:35:44;14.10;99.90
27667;DHT22;15074;50.940;5.282;2022-07-05T01:38:11;14.10;99.90
27667;DHT22;15074;50.940;5.282;2022-07-05T01:40:37;14.10;99.90
27667;DHT22;15074;50.940;5.282;2022-07-05T01:43:04;14.10;99.90
27667;DHT22;15074;50.940;5.282;2022-07-05T01:45:29;14.00;99.90
27667;DHT22;15074;50.940;5.282;2022-07-05T01:48:15;13.80;99.90
27667;DHT22;15074;50.940;5.282;2022-07-05T01:53:11;13.60;99.90
27667;DHT22;15074;50.940;5.282;2022-07-05T01:55:39;13.50;99.90
27667;DHT22;15074;50.940;5.282;2022-07-05T01:58:06;13.30;99.90
27667;DHT22;15074;50.940;5.282;2022-07-05T02:03:10;13.20;99.90
27667;DHT22;15074;50.940;5.282;2022-07-05T02:05:37;13.10;99.90
27667;DHT22;15074;50.940;5.282;2022-07-05T02:08:03;13.20;99.90
27667;DHT22;15074;50.940;5.282;2022-07-05T02:10:28;13.10;99.90
27667;DHT22;15074;50.940;5.282;2022-07-05T02:12:54;13.10;99.90
27667;DHT22;15074;50.940;5.282;2022-07-05T02:15:19;13.20;99.90
27667;DHT22;15074;50.940;5.282;2022-07-05T02:17:45;13.10;99.90
27667;DHT22;15074;50.940;5.282;2022-07-05T02:20:11;12.90;99.90
27667;DHT22;15074;50.940;5.282;2022-07-05T02:22:36;13.00;99.90
27667;DHT22;15074;50.940;5.282;2022-07-05T02:25:02;12.90;99.90
27667;DHT22;15074;50.940;5.282;2022-07-05T02:27:28;13.00;99.90
27667;DHT22;15074;50.940;5.282;2022-07-05T02:29:53;12.90;99.90
27667;DHT22;15074;50.940;5.282;2022-07-05T02:32:19;12.80;99.90
27667;DHT22;15074;50.940;5.282;2022-07-05T02:34:45;12.70;99.90
27667;DHT22;15074;50.940;5.282;2022-07-05T02:37:10;12.60;99.90
27667;DHT22;15074;50.940;5.282;2022-07-05T02:39:36;12.60;99.90
27667;DHT22;15074;50.940;5.282;2022-07-05T02:42:01;12.60;99.90
27667;DHT22;15074;50.940;5.282;2022-07-05T02:44:27;12.60;99.90
27667;DHT22;15074;50.940;5.282;2022-07-05T02:46:53;12.70;99.90
27667;DHT22;15074;50.940;5.282;2022-07-05T02:49:18;12.70;99.90
27667;DHT22;15074;50.940;5.282;2022-07-05T02:51:44;12.70;99.90
27667;DHT22;15074;50.940;5.282;2022-07-05T02:54:09;12.60;99.90
27667;DHT22;15074;50.940;5.282;2022-07-05T02:56:35;12.70;99.90
27667;DHT22;15074;50.940;5.282;2022-07-05T02:59:01;12.90;99.90
27667;DHT22;15074;50.940;5.282;2022-07-05T03:01:26;12.90;99.90
27667;DHT22;15074;50.940;5.282;2022-07-05T03:03:52;12.80;99.90
27667;DHT22;15074;50.940;5.282;2022-07-05T03:06:18;12.70;99.90
27667;DHT22;15074;50.940;5.282;2022-07-05T03:08:43;12.60;99.90
27667;DHT22;15074;50.940;5.282;2022-07-05T03:11:09;12.60;99.90
27667;DHT22;15074;50.940;5.282;2022-07-05T03:13:34;12.50;99.90
27667;DHT22;15074;50.940;5.282;2022-07-05T03:16:00;12.40;99.90
27667;DHT22;15074;50.940;5.282;2022-07-05T03:18:26;12.30;99.90
27667;DHT22;15074;50.940;5.282;2022-07-05T03:20:51;12.30;99.90
27667;DHT22;15074;50.940;5.282;2022-07-05T03:23:17;12.20;99.90
27667;DHT22;15074;50.940;5.282;2022-07-05T03:25:42;12.30;99.90
27667;DHT22;15074;50.940;5.282;2022-07-05T03:28:08;12.40;99.90
27667;DHT22;15074;50.940;5.282;2022-07-05T03:30:34;12.30;99.90
27667;DHT22;15074;50.940;5.282;2022-07-05T03:33:00;12.40;99.90
27667;DHT22;15074;50.940;5.282;2022-07-05T03:35:26;12.50;99.90
27667;DHT22;15074;50.940;5.282;2022-07-05T03:37:52;12.50;99.90
27667;DHT22;15074;50.940;5.282;2022-07-05T03:40:18;12.40;99.90
27667;DHT22;15074;50.940;5.282;2022-07-05T03:42:43;12.30;99.90
27667;DHT22;15074;50.940;5.282;2022-07-05T03:45:09;12.30;99.90
27667;DHT22;15074;50.940;5.282;2022-07-05T03:47:35;12.30;99.90
27667;DHT22;15074;50.940;5.282;2022-07-05T03:50:02;12.30;99.90
27667;DHT22;15074;50.940;5.282;2022-07-05T03:52:28;12.30;99.90
27667;DHT22;15074;50.940;5.282;2022-07-05T03:54:53;12.40;99.90
27667;DHT22;15074;50.940;5.282;2022-07-05T03:57:20;12.40;99.90
27667;DHT22;15074;50.940;5.282;2022-07-05T03:59:45;12.50;99.90
27667;DHT22;15074;50.940;5.282;2022-07-05T04:02:11;12.70;99.90
27667;DHT22;15074;50.940;5.282;2022-07-05T04:04:37;12.70;99.90
27667;DHT22;15074;50.940;5.282;2022-07-05T04:07:02;12.70;99.90
27667;DHT22;15074;50.940;5.282;2022-07-05T04:09:28;12.80;99.90
27667;DHT22;15074;50.940;5.282;2022-07-05T04:11:54;12.70;99.90
27667;DHT22;15074;50.940;5.282;2022-07-05T04:14:19;12.70;99.90
27667;DHT22;15074;50.940;5.282;2022-07-05T04:16:45;12.70;99.90
27667;DHT22;15074;50.940;5.282;2022-07-05T04:19:11;12.70;99.90
27667;DHT22;15074;50.940;5.282;2022-07-05T04:21:36;12.70;99.90
27667;DHT22;15074;50.940;5.282;2022-07-05T04:24:02;12.90;99.90
27667;DHT22;15074;50.940;5.282;2022-07-05T04:26:28;13.00;99.90
27667;DHT22;15074;50.940;5.282;2022-07-05T04:28:53;13.20;99.90
27667;DHT22;15074;50.940;5.282;2022-07-05T04:31:19;13.30;99.90
27667;DHT22;15074;50.940;5.282;2022-07-05T04:33:44;13.40;99.90
27667;DHT22;15074;50.940;5.282;2022-07-05T04:36:10;13.60;99.90
27667;DHT22;15074;50.940;5.282;2022-07-05T04:38:35;13.70;99.90
27667;DHT22;15074;50.940;5.282;2022-07-05T04:41:01;13.90;99.90
27667;DHT22;15074;50.940;5.282;2022-07-05T04:43:27;14.40;99.90
27667;DHT22;15074;50.940;5.282;2022-07-05T04:45:52;15.00;99.90
27667;DHT22;15074;50.940;5.282;2022-07-05T04:48:18;15.80;99.90
27667;DHT22;15074;50.940;5.282;2022-07-05T04:50:43;16.30;99.90
27667;DHT22;15074;50.940;5.282;2022-07-05T04:53:09;16.80;99.90
27667;DHT22;15074;50.940;5.282;2022-07-05T04:55:35;17.30;99.90
27667;DHT22;15074;50.940;5.282;2022-07-05T04:58:01;17.80;99.90
27667;DHT22;15074;50.940;5.282;2022-07-05T05:00:26;17.90;99.90
27667;DHT22;15074;50.940;5.282;2022-07-05T05:02:52;18.20;99.90
27667;DHT22;15074;50.940;5.282;2022-07-05T05:05:18;18.80;99.90
27667;DHT22;15074;50.940;5.282;2022-07-05T05:07:44;18.90;99.90
27667;DHT22;15074;50.940;5.282;2022-07-05T05:10:10;18.70;99.90
27667;DHT22;15074;50.940;5.282;2022-07-05T05:12:36;19.10;99.90
27667;DHT22;15074;50.940;5.282;2022-07-05T05:15:03;19.10;99.90
27667;DHT22;15074;50.940;5.282;2022-07-05T05:17:43;18.70;99.90
27667;DHT22;15074;50.940;5.282;2022-07-05T05:20:14;18.80;99.90
27667;DHT22;15074;50.940;5.282;2022-07-05T05:22:41;18.80;99.90
27667;DHT22;15074;50.940;5.282;2022-07-05T05:25:08;18.50;99.90
27667;DHT22;15074;50.940;5.282;2022-07-05T05:27:34;18.90;99.90
27667;DHT22;15074;50.940;5.282;2022-07-05T05:30:00;19.00;99.90
27667;DHT22;15074;50.940;5.282;2022-07-05T05:32:25;19.80;99.90
27667;DHT22;15074;50.940;5.282;2022-07-05T05:34:51;20.20;99.90
27667;DHT22;15074;50.940;5.282;2022-07-05T05:37:17;20.60;99.90
27667;DHT22;15074;50.940;5.282;2022-07-05T05:39:42;20.40;99.90
27667;DHT22;15074;50.940;5.282;2022-07-05T05:42:08;20.90;99.90
27667;DHT22;15074;50.940;5.282;2022-07-05T05:44:34;21.90;99.90
27667;DHT22;15074;50.940;5.282;2022-07-05T05:46:59;22.60;99.90
27667;DHT22;15074;50.940;5.282;2022-07-05T05:49:25;23.00;99.90
27667;DHT22;15074;50.940;5.282;2022-07-05T05:51:50;23.00;99.90
27667;DHT22;15074;50.940;5.282;2022-07-05T05:54:16;23.30;99.90
27667;DHT22;15074;50.940;5.282;2022-07-05T05:56:42;24.10;99.90
27667;DHT22;15074;50.940;5.282;2022-07-05T05:59:07;24.60;99.90
27667;DHT22;15074;50.940;5.282;2022-07-05T06:01:33;23.00;99.90
27667;DHT22;15074;50.940;5.282;2022-07-05T06:03:59;23.10;99.90
27667;DHT22;15074;50.940;5.282;2022-07-05T06:06:25;23.80;99.90
27667;DHT22;15074;50.940;5.282;2022-07-05T06:08:51;25.30;99.90
27667;DHT22;15074;50.940;5.282;2022-07-05T06:11:16;26.10;99.90
27667;DHT22;15074;50.940;5.282;2022-07-05T06:13:42;25.90;99.90
27667;DHT22;15074;50.940;5.282;2022-07-05T06:16:07;26.50;99.90
27667;DHT22;15074;50.940;5.282;2022-07-05T06:18:33;25.90;99.90
27667;DHT22;15074;50.940;5.282;2022-07-05T06:20:59;26.10;99.90
27667;DHT22;15074;50.940;5.282;2022-07-05T06:23:24;25.90;99.90
27667;DHT22;15074;50.940;5.282;2022-07-05T06:25:50;25.80;99.90
27667;DHT22;15074;50.940;5.282;2022-07-05T06:28:15;25.90;99.90
27667;DHT22;15074;50.940;5.282;2022-07-05T06:30:42;26.80;99.90
27667;DHT22;15074;50.940;5.282;2022-07-05T06:33:08;27.00;99.90
27667;DHT22;15074;50.940;5.282;2022-07-05T06:35:34;28.40;99.90
27667;DHT22;15074;50.940;5.282;2022-07-05T06:40:39;28.20;99.90
27667;DHT22;15074;50.940;5.282;2022-07-05T06:43:08;28.20;99.90
27667;DHT22;15074;50.940;5.282;2022-07-05T06:45:34;29.20;99.20
27667;DHT22;15074;50.940;5.282;2022-07-05T06:48:07;28.00;99.90
27667;DHT22;15074;50.940;5.282;2022-07-05T06:50:35;28.30;99.80
27667;DHT22;15074;50.940;5.282;2022-07-05T06:53:02;27.80;99.90
27667;DHT22;15074;50.940;5.282;2022-07-05T06:55:27;28.20;99.90
27667;DHT22;15074;50.940;5.282;2022-07-05T06:58:04;28.00;98.90
27667;DHT22;15074;50.940;5.282;2022-07-05T07:00:30;27.30;99.60
27667;DHT22;15074;50.940;5.282;2022-07-05T07:02:57;26.80;99.90
27667;DHT22;15074;50.940;5.282;2022-07-05T07:05:23;26.90;99.90
27667;DHT22;15074;50.940;5.282;2022-07-05T07:07:48;26.80;99.80
27667;DHT22;15074;50.940;5.282;2022-07-05T07:10:33;27.00;99.90
27667;DHT22;15074;50.940;5.282;2022-07-05T07:12:59;26.10;99.90
27667;DHT22;15074;50.940;5.282;2022-07-05T07:15:25;26.70;99.90
27667;DHT22;15074;50.940;5.282;2022-07-05T07:17:51;26.70;99.90
27667;DHT22;15074;50.940;5.282;2022-07-05T07:20:17;26.00;99.90
27667;DHT22;15074;50.940;5.282;2022-07-05T07:22:43;25.20;99.90
27667;DHT22;15074;50.940;5.282;2022-07-05T07:25:09;24.30;99.90
27667;DHT22;15074;50.940;5.282;2022-07-05T07:27:44;24.70;99.90
27667;DHT22;15074;50.940;5.282;2022-07-05T07:30:15;26.20;99.90
27667;DHT22;15074;50.940;5.282;2022-07-05T07:32:41;27.10;99.90
27667;DHT22;15074;50.940;5.282;2022-07-05T07:35:08;28.00;99.60
27667;DHT22;15074;50.940;5.282;2022-07-05T07:37:34;28.30;99.00
27667;DHT22;15074;50.940;5.282;2022-07-05T07:40:00;28.60;97.90
27667;DHT22;15074;50.940;5.282;2022-07-05T07:42:29;27.00;99.40
27667;DHT22;15074;50.940;5.282;2022-07-05T07:44:54;27.10;99.90
27667;DHT22;15074;50.940;5.282;2022-07-05T07:47:20;27.30;99.90
27667;DHT22;15074;50.940;5.282;2022-07-05T07:49:46;27.20;99.90
27667;DHT22;15074;50.940;5.282;2022-07-05T07:52:12;26.90;99.90
27667;DHT22;15074;50.940;5.282;2022-07-05T07:54:37;27.60;99.30
27667;DHT22;15074;50.940;5.282;2022-07-05T07:57:04;27.90;98.40
27667;DHT22;15074;50.940;5.282;2022-07-05T07:59:33;28.50;97.80
27667;DHT22;15074;50.940;5.282;2022-07-05T08:01:59;28.60;97.40
27667;DHT22;15074;50.940;5.282;2022-07-05T08:04:25;29.00;96.90
27667;DHT22;15074;50.940;5.282;2022-07-05T08:06:51;29.60;95.70
27667;DHT22;15074;50.940;5.282;2022-07-05T08:09:18;29.50;94.90
27667;DHT22;15074;50.940;5.282;2022-07-05T08:11:45;29.50;95.00
27667;DHT22;15074;50.940;5.282;2022-07-05T08:14:12;29.80;95.10
27667;DHT22;15074;50.940;5.282;2022-07-05T08:16:38;29.60;93.90
27667;DHT22;15074;50.940;5.282;2022-07-05T08:19:03;29.20;93.90
27667;DHT22;15074;50.940;5.282;2022-07-05T08:22:01;29.00;94.50
27667;DHT22;15074;50.940;5.282;2022-07-05T08:24:28;28.90;93.70
27667;DHT22;15074;50.940;5.282;2022-07-05T08:26:53;29.20;93.30
27667;DHT22;15074;50.940;5.282;2022-07-05T08:29:19;30.00;92.30
27667;DHT22;15074;50.940;5.282;2022-07-05T08:31:47;30.60;92.20
27667;DHT22;15074;50.940;5.282;2022-07-05T08:34:13;31.20;92.30
27667;DHT22;15074;50.940;5.282;2022-07-05T08:36:39;31.90;91.30
27667;DHT22;15074;50.940;5.282;2022-07-05T08:39:07;32.00;90.20
27667;DHT22;15074;50.940;5.282;2022-07-05T08:41:36;30.50;92.10
27667;DHT22;15074;50.940;5.282;2022-07-05T08:44:03;29.90;91.40
27667;DHT22;15074;50.940;5.282;2022-07-05T08:46:32;29.50;91.10
27667;DHT22;15074;50.940;5.282;2022-07-05T08:49:00;28.30;92.30
27667;DHT22;15074;50.940;5.282;2022-07-05T08:51:28;27.40;93.90
27667;DHT22;15074;50.940;5.282;2022-07-05T08:53:54;28.20;93.90
27667;DHT22;15074;50.940;5.282;2022-07-05T08:56:23;28.80;93.40
27667;DHT22;15074;50.940;5.282;2022-07-05T08:58:49;29.50;92.40
27667;DHT22;15074;50.940;5.282;2022-07-05T09:01:15;30.00;90.70
27667;DHT22;15074;50.940;5.282;2022-07-05T09:03:47;29.50;90.70
27667;DHT22;15074;50.940;5.282;2022-07-05T09:06:16;30.20;91.60
27667;DHT22;15074;50.940;5.282;2022-07-05T09:08:42;30.00;90.50
27667;DHT22;15074;50.940;5.282;2022-07-05T09:11:24;31.80;90.20
27667;DHT22;15074;50.940;5.282;2022-07-05T09:13:52;29.30;90.00
27667;DHT22;15074;50.940;5.282;2022-07-05T09:16:18;29.20;91.50
27667;DHT22;15074;50.940;5.282;2022-07-05T09:18:45;28.70;92.30
27667;DHT22;15074;50.940;5.282;2022-07-05T09:21:13;29.50;91.60
27667;DHT22;15074;50.940;5.282;2022-07-05T09:23:39;30.30;91.00
27667;DHT22;15074;50.940;5.282;2022-07-05T09:26:06;29.00;90.00
27667;DHT22;15074;50.940;5.282;2022-07-05T09:28:32;29.20;91.00
27667;DHT22;15074;50.940;5.282;2022-07-05T09:30:58;30.00;91.40
27667;DHT22;15074;50.940;5.282;2022-07-05T09:33:24;30.60;87.90
27667;DHT22;15074;50.940;5.282;2022-07-05T09:35:54;31.00;87.40
27667;DHT22;15074;50.940;5.282;2022-07-05T09:38:23;30.80;87.80
27667;DHT22;15074;50.940;5.282;2022-07-05T09:40:56;30.70;90.00
27667;DHT22;15074;50.940;5.282;2022-07-05T09:43:29;30.50;88.50
27667;DHT22;15074;50.940;5.282;2022-07-05T09:46:03;30.40;85.80
27667;DHT22;15074;50.940;5.282;2022-07-05T09:48:30;28.60;90.40
27667;DHT22;15074;50.940;5.282;2022-07-05T09:53:45;29.50;88.80
27667;DHT22;15074;50.940;5.282;2022-07-05T09:56:11;28.80;90.40
27667;DHT22;15074;50.940;5.282;2022-07-05T09:58:37;28.80;91.20
27667;DHT22;15074;50.940;5.282;2022-07-05T10:01:29;30.10;85.80
27667;DHT22;15074;50.940;5.282;2022-07-05T10:04:00;30.60;89.30
27667;DHT22;15074;50.940;5.282;2022-07-05T10:06:30;30.20;87.40
27667;DHT22;15074;50.940;5.282;2022-07-05T10:08:56;28.90;87.90
27667;DHT22;15074;50.940;5.282;2022-07-05T10:11:24;27.20;92.10
27667;DHT22;15074;50.940;5.282;2022-07-05T10:13:51;27.40;92.30
27667;DHT22;15074;50.940;5.282;2022-07-05T10:16:18;27.80;91.90
27667;DHT22;15074;50.940;5.282;2022-07-05T10:18:46;28.90;91.50
27667;DHT22;15074;50.940;5.282;2022-07-05T10:21:13;30.00;90.00
27667;DHT22;15074;50.940;5.282;2022-07-05T10:23:46;29.80;88.20
27667;DHT22;15074;50.940;5.282;2022-07-05T10:26:13;29.30;87.70
27667;DHT22;15074;50.940;5.282;2022-07-05T10:28:51;28.90;88.80
27667;DHT22;15074;50.940;5.282;2022-07-05T10:31:17;29.00;90.30
27667;DHT22;15074;50.940;5.282;2022-07-05T10:33:43;29.00;90.20
27667;DHT22;15074;50.940;5.282;2022-07-05T10:36:10;28.80;89.90
27667;DHT22;15074;50.940;5.282;2022-07-05T10:38:42;28.80;90.10
27667;DHT22;15074;50.940;5.282;2022-07-05T10:41:14;28.60;90.30
27667;DHT22;15074;50.940;5.282;2022-07-05T10:43:40;29.00;90.90
27667;DHT22;15074;50.940;5.282;2022-07-05T10:46:06;29.70;89.70
27667;DHT22;15074;50.940;5.282;2022-07-05T10:48:34;31.50;87.10
27667;DHT22;15074;50.940;5.282;2022-07-05T11:06:28;29.10;83.50
27667;DHT22;15074;50.940;5.282;2022-07-05T11:11:27;27.40;88.80
27667;DHT22;15074;50.940;5.282;2022-07-05T11:13:53;26.90;90.30
27667;DHT22;15074;50.940;5.282;2022-07-05T11:16:30;26.60;90.50
27667;DHT22;15074;50.940;5.282;2022-07-05T11:19:07;27.40;90.80
27667;DHT22;15074;50.940;5.282;2022-07-05T11:21:36;28.20;87.70
27667;DHT22;15074;50.940;5.282;2022-07-05T11:24:29;28.70;83.70
27667;DHT22;15074;50.940;5.282;2022-07-05T11:26:58;28.60;84.00
27667;DHT22;15074;50.940;5.282;2022-07-05T11:29:51;28.20;86.30
27667;DHT22;15074;50.940;5.282;2022-07-05T11:32:22;28.30;83.70
27667;DHT22;15074;50.940;5.282;2022-07-05T11:34:50;29.00;78.50
27667;DHT22;15074;50.940;5.282;2022-07-05T11:39:45;30.60;76.60
27667;DHT22;15074;50.940;5.282;2022-07-05T11:42:22;30.50;78.70
27667;DHT22;15074;50.940;5.282;2022-07-05T11:44:51;29.20;85.30
27667;DHT22;15074;50.940;5.282;2022-07-05T11:47:17;29.10;85.40
27667;DHT22;15074;50.940;5.282;2022-07-05T11:49:54;28.80;88.10
27667;DHT22;15074;50.940;5.282;2022-07-05T11:52:28;29.30;83.60
27667;DHT22;15074;50.940;5.282;2022-07-05T11:54:54;29.30;84.50
27667;DHT22;15074;50.940;5.282;2022-07-05T11:57:20;29.40;85.10
27667;DHT22;15074;50.940;5.282;2022-07-05T11:59:46;29.70;84.00
27667;DHT22;15074;50.940;5.282;2022-07-05T12:02:12;29.50;85.10
27667;DHT22;15074;50.940;5.282;2022-07-05T12:04:38;29.00;85.00
27667;DHT22;15074;50.940;5.282;2022-07-05T12:07:04;29.10;84.50
27667;DHT22;15074;50.940;5.282;2022-07-05T12:09:32;29.20;81.50
27667;DHT22;15074;50.940;5.282;2022-07-05T12:12:20;29.50;79.00
27667;DHT22;15074;50.940;5.282;2022-07-05T12:15:05;30.30;77.00
27667;DHT22;15074;50.940;5.282;2022-07-05T12:17:33;31.50;75.40
27667;DHT22;15074;50.940;5.282;2022-07-05T12:19:59;32.10;75.70
27667;DHT22;15074;50.940;5.282;2022-07-05T12:22:32;31.00;73.70
27667;DHT22;15074;50.940;5.282;2022-07-05T12:24:59;30.50;77.50
27667;DHT22;15074;50.940;5.282;2022-07-05T12:27:27;31.40;75.00
27667;DHT22;15074;50.940;5.282;2022-07-05T12:29:53;31.20;76.50
27667;DHT22;15074;50.940;5.282;2022-07-05T12:32:18;30.60;77.90
27667;DHT22;15074;50.940;5.282;2022-07-05T12:34:44;30.20;78.30
27667;DHT22;15074;50.940;5.282;2022-07-05T12:37:10;31.00;78.70
27667;DHT22;15074;50.940;5.282;2022-07-05T12:39:36;31.50;78.60
27667;DHT22;15074;50.940;5.282;2022-07-05T12:42:01;32.80;76.80
27667;DHT22;15074;50.940;5.282;2022-07-05T12:44:27;33.40;73.10
27667;DHT22;15074;50.940;5.282;2022-07-05T12:47:03;32.70;72.70
27667;DHT22;15074;50.940;5.282;2022-07-05T12:49:29;31.30;74.50
27667;DHT22;15074;50.940;5.282;2022-07-05T12:52:03;30.80;76.30
27667;DHT22;15074;50.940;5.282;2022-07-05T12:54:32;30.00;77.90
27667;DHT22;15074;50.940;5.282;2022-07-05T12:57:16;29.50;79.20
27667;DHT22;15074;50.940;5.282;2022-07-05T13:00:08;29.20;79.50
27667;DHT22;15074;50.940;5.282;2022-07-05T13:02:45;28.50;82.00
27667;DHT22;15074;50.940;5.282;2022-07-05T13:05:22;27.60;83.70
27667;DHT22;15074;50.940;5.282;2022-07-05T13:07:48;28.10;84.90
27667;DHT22;15074;50.940;5.282;2022-07-05T13:10:21;28.80;82.20
27667;DHT22;15074;50.940;5.282;2022-07-05T13:12:47;28.60;81.10
27667;DHT22;15074;50.940;5.282;2022-07-05T13:15:14;28.40;82.40
27667;DHT22;15074;50.940;5.282;2022-07-05T13:17:40;27.40;85.50
27667;DHT22;15074;50.940;5.282;2022-07-05T13:20:07;26.50;87.80
27667;DHT22;15074;50.940;5.282;2022-07-05T13:22:33;26.10;89.00
27667;DHT22;15074;50.940;5.282;2022-07-05T13:24:59;26.20;89.50
27667;DHT22;15074;50.940;5.282;2022-07-05T13:27:24;26.50;90.00
27667;DHT22;15074;50.940;5.282;2022-07-05T13:29:50;26.70;90.70
27667;DHT22;15074;50.940;5.282;2022-07-05T13:32:15;26.70;90.20
27667;DHT22;15074;50.940;5.282;2022-07-05T13:34:43;26.40;91.30
27667;DHT22;15074;50.940;5.282;2022-07-05T13:37:10;26.40;91.20
27667;DHT22;15074;50.940;5.282;2022-07-05T13:39:36;26.20;90.80
27667;DHT22;15074;50.940;5.282;2022-07-05T13:42:04;26.20;90.70
27667;DHT22;15074;50.940;5.282;2022-07-05T13:44:31;26.10;90.90
27667;DHT22;15074;50.940;5.282;2022-07-05T13:46:57;25.90;91.00
27667;DHT22;15074;50.940;5.282;2022-07-05T13:49:22;26.00;91.40
27667;DHT22;15074;50.940;5.282;2022-07-05T13:51:48;26.10;91.50
27667;DHT22;15074;50.940;5.282;2022-07-05T13:54:14;25.90;92.70
27667;DHT22;15074;50.940;5.282;2022-07-05T13:56:40;26.50;92.40
27667;DHT22;15074;50.940;5.282;2022-07-05T13:59:06;27.60;91.00
27667;DHT22;15074;50.940;5.282;2022-07-05T14:01:32;28.60;88.70
27667;DHT22;15074;50.940;5.282;2022-07-05T14:03:59;29.00;87.10
27667;DHT22;15074;50.940;5.282;2022-07-05T14:06:26;29.60;84.50
27667;DHT22;15074;50.940;5.282;2022-07-05T14:08:52;30.40;84.20
27667;DHT22;15074;50.940;5.282;2022-07-05T14:11:18;30.20;82.20
27667;DHT22;15074;50.940;5.282;2022-07-05T14:13:44;30.80;81.00
27667;DHT22;15074;50.940;5.282;2022-07-05T14:16:10;31.10;80.60
27667;DHT22;15074;50.940;5.282;2022-07-05T14:18:35;30.60;80.40
27667;DHT22;15074;50.940;5.282;2022-07-05T14:21:02;30.20;81.00
27667;DHT22;15074;50.940;5.282;2022-07-05T14:23:27;30.10;83.40
27667;DHT22;15074;50.940;5.282;2022-07-05T14:25:53;30.80;83.00
27667;DHT22;15074;50.940;5.282;2022-07-05T14:28:19;29.80;84.10
27667;DHT22;15074;50.940;5.282;2022-07-05T14:30:45;29.40;85.20
27667;DHT22;15074;50.940;5.282;2022-07-05T14:33:13;29.40;86.00
27667;DHT22;15074;50.940;5.282;2022-07-05T14:35:39;29.40;85.10
27667;DHT22;15074;50.940;5.282;2022-07-05T14:38:06;28.80;86.50
27667;DHT22;15074;50.940;5.282;2022-07-05T14:40:32;27.90;88.40
27667;DHT22;15074;50.940;5.282;2022-07-05T14:42:58;26.90;90.30
27667;DHT22;15074;50.940;5.282;2022-07-05T14:45:24;26.10;90.50
27667;DHT22;15074;50.940;5.282;2022-07-05T14:47:51;25.80;90.90
27667;DHT22;15074;50.940;5.282;2022-07-05T14:50:17;25.60;91.50
27667;DHT22;15074;50.940;5.282;2022-07-05T14:52:42;25.90;91.10
27667;DHT22;15074;50.940;5.282;2022-07-05T14:55:09;26.50;90.60
27667;DHT22;15074;50.940;5.282;2022-07-05T14:57:39;27.10;90.50
27667;DHT22;15074;50.940;5.282;2022-07-05T15:00:08;27.60;89.80
27667;DHT22;15074;50.940;5.282;2022-07-05T15:02:34;27.40;88.90
27667;DHT22;15074;50.940;5.282;2022-07-05T15:05:00;27.10;90.60
27667;DHT22;15074;50.940;5.282;2022-07-05T15:07:26;26.80;90.20
27667;DHT22;15074;50.940;5.282;2022-07-05T15:09:51;26.30;90.30
27667;DHT22;15074;50.940;5.282;2022-07-05T15:12:17;25.70;91.20
27667;DHT22;15074;50.940;5.282;2022-07-05T15:14:43;25.70;91.30
27667;DHT22;15074;50.940;5.282;2022-07-05T15:17:10;25.50;91.30
27667;DHT22;15074;50.940;5.282;2022-07-05T15:19:35;25.80;92.10
27667;DHT22;15074;50.940;5.282;2022-07-05T15:22:01;26.00;91.70
27667;DHT22;15074;50.940;5.282;2022-07-05T15:24:27;26.00;91.40
27667;DHT22;15074;50.940;5.282;2022-07-05T15:26:53;25.60;91.10
27667;DHT22;15074;50.940;5.282;2022-07-05T15:29:19;25.10;91.90
27667;DHT22;15074;50.940;5.282;2022-07-05T15:31:45;24.80;92.60
27667;DHT22;15074;50.940;5.282;2022-07-05T15:34:10;24.60;92.80
27667;DHT22;15074;50.940;5.282;2022-07-05T15:36:37;24.60;92.00
27667;DHT22;15074;50.940;5.282;2022-07-05T15:39:05;24.70;92.10
27667;DHT22;15074;50.940;5.282;2022-07-05T15:41:33;24.70;92.40
27667;DHT22;15074;50.940;5.282;2022-07-05T15:43:59;24.60;92.00
27667;DHT22;15074;50.940;5.282;2022-07-05T15:46:25;24.60;92.30
27667;DHT22;15074;50.940;5.282;2022-07-05T15:48:50;24.50;92.50
27667;DHT22;15074;50.940;5.282;2022-07-05T15:51:17;24.40;92.50
27667;DHT22;15074;50.940;5.282;2022-07-05T15:53:43;24.00;93.00
27667;DHT22;15074;50.940;5.282;2022-07-05T15:56:09;23.70;93.70
27667;DHT22;15074;50.940;5.282;2022-07-05T15:58:35;23.90;93.90
27667;DHT22;15074;50.940;5.282;2022-07-05T16:01:02;23.90;93.40